KLWV

Details ICAO KLWV
Name LAWRENCEVILLE VINCENNES INTL
Region United States
Timezone America/Chicago (UTC-5.0)
Plans Departing 5
Arriving 0
Stats Elevation 430 ft / 131 m (AMSL)
Location 38.759799° -87.608480°
Runways 3
Magnetic Variation 3.531° W
Sunrise 2018-05-23 10:33:32 UTC / 2018-05-23 05:33:32 Local
Sunset 2018-05-24 01:03:44 UTC / 2018-05-23 20:03:44 Local
Advertisement - Login to hide

Runways

ID Width Length Bearing (true) Bearing (mag) Surface Threshold Offset Overrun Length
04 200 ft / 61 m 1,000 ft / 305 m 44.91° 48.44° Grass 0 ft / 0 m 0 ft / 0 m
09 150 ft / 46 m 5,186 ft / 1,581 m 89.41° 92.94° Asphalt 0 ft / 0 m 0 ft / 0 m
18 150 ft / 46 m 5,209 ft / 1,588 m 179.48° 183.01° Asphalt 0 ft / 0 m 0 ft / 0 m
22 200 ft / 61 m 1,000 ft / 305 m 224.91° 228.44° Grass 0 ft / 0 m 0 ft / 0 m
27 150 ft / 46 m 5,186 ft / 1,581 m 269.42° 272.95° Asphalt 0 ft / 0 m 0 ft / 0 m
36 150 ft / 46 m 5,209 ft / 1,588 m 359.48° 3.01° Asphalt 0 ft / 0 m 0 ft / 0 m

Map

Weather


0- 5 10 15 20 25 30 35+ Temperature / ° C

Clouds and Precipitation
Forecast for 2018-05-23 18:00 UTC. Updated 4 hours ago

Ground ~20,000 ft ~40,000 ft Winds

METAR

KLWV 231953Z AUTO 06009KT 10SM CLR 31/15 A3011 RMK AO2 SLP193 T03060150

TAF

Not found

Frequencies

Recorded 118.00 MHz ASOS
Approach 125.60 MHz EVANSVILLE APP/DEP
Unicom 122.80 MHz CTAF/UNICOM
Warning: Do not use this data for real-world aviation or navigation. No guarantee of current accuracy is given.